| time (UTC) | temp F | wind direction | speed MPH | gust MPH | rain 1hr in | rain 24hr in | rain mn in | humidity % | barometer mb |
| 20260507184033 | 65 | 267 | 2.0 | 13.0 | 0.00 | 0.74 | 0.38 | 79 | 1012.0 |
| 20260507183534 | 65 | 258 | 3.0 | 13.0 | 0.00 | 0.74 | 0.38 | 81 | 1012.0 |
| 20260507183045 | 64 | 263 | 3.0 | 13.0 | 0.00 | 0.74 | 0.38 | 81 | 1011.9 |
| 20260507182533 | 63 | 259 | 4.0 | 13.0 | 0.00 | 0.74 | 0.38 | 82 | 1012.1 |
| 20260507182033 | 63 | 254 | 3.0 | 13.0 | 0.00 | 0.74 | 0.38 | 82 | 1012.1 |
| 20260507181543 | 63 | 234 | 5.0 | 12.0 | 0.00 | 0.74 | 0.38 | 82 | 1012.1 |
| 20260507181033 | 63 | 248 | 4.0 | 11.0 | 0.00 | 0.74 | 0.38 | 83 | 1012.2 |
| 20260507180535 | 62 | 259 | 3.0 | 11.0 | 0.00 | 0.74 | 0.38 | 84 | 1012.3 |
| 20260507180054 | 62 | 250 | 3.0 | 10.0 | 0.19 | 0.74 | 0.38 | 85 | 1012.3 |
| 20260507175533 | 61 | 201 | 4.0 | 12.0 | 0.20 | 0.79 | 0.38 | 86 | 1012.4 |
| 20260507175033 | 61 | 257 | 5.0 | 12.0 | 0.20 | 0.79 | 0.38 | 86 | 1012.4 |
| 20260507174555 | 61 | 275 | 3.0 | 14.0 | 0.20 | 0.79 | 0.38 | 87 | 1012.5 |
| 20260507174034 | 61 | 257 | 4.0 | 14.0 | 0.20 | 0.79 | 0.38 | 87 | 1012.5 |
| 20260507173533 | 61 | 271 | 4.0 | 13.0 | 0.20 | 0.79 | 0.38 | 87 | 1012.5 |
| 20260507173049 | 61 | 261 | 5.0 | 13.0 | 0.20 | 0.79 | 0.38 | 86 | 1012.6 |
| 20260507172538 | 61 | 261 | 4.0 | 12.0 | 0.20 | 0.79 | 0.38 | 86 | 1012.5 |
| 20260507172032 | 62 | 243 | 5.0 | 12.0 | 0.20 | 0.79 | 0.38 | 86 | 1012.6 |
| 20260507171557 | 62 | 249 | 6.0 | 12.0 | 0.21 | 0.79 | 0.38 | 85 | 1012.5 |
| 20260507171033 | 62 | 261 | 5.0 | 11.0 | 0.21 | 0.79 | 0.38 | 85 | 1012.3 |
| 20260507170533 | 62 | 254 | 3.0 | 11.0 | 0.21 | 0.79 | 0.38 | 85 | 1012.4 |
| 20260507170048 | 63 | 257 | 4.0 | 15.0 | 0.02 | 0.60 | 0.19 | 85 | 1012.3 |
| 20260507165533 | 63 | 259 | 4.0 | 15.0 | 0.01 | 0.64 | 0.18 | 84 | 1012.3 |
| 20260507165032 | 63 | 245 | 4.0 | 11.0 | 0.01 | 0.64 | 0.18 | 85 | 1012.2 |
| 20260507164543 | 63 | 251 | 4.0 | 11.0 | 0.01 | 0.64 | 0.18 | 85 | 1012.0 |
| 20260507164033 | 62 | 259 | 4.0 | 11.0 | 0.01 | 0.64 | 0.18 | 86 | 1012.1 |
| 20260507163535 | 62 | 260 | 4.0 | 11.0 | 0.02 | 0.64 | 0.18 | 85 | 1012.0 |
| 20260507163043 | 62 | 267 | 3.0 | 11.0 | 0.02 | 0.64 | 0.18 | 86 | 1012.1 |
| 20260507162534 | 62 | 232 | 4.0 | 11.0 | 0.02 | 0.64 | 0.18 | 86 | 1012.2 |
| 20260507162033 | 62 | 222 | 4.0 | 10.0 | 0.02 | 0.64 | 0.18 | 86 | 1012.0 |
| 20260507161553 | 62 | 257 | 3.0 | 10.0 | 0.01 | 0.63 | 0.17 | 86 | 1011.9 |
| 20260507161033 | 62 | 259 | 3.0 | 12.0 | 0.01 | 0.63 | 0.17 | 86 | 1011.9 |
| 20260507160535 | 62 | 271 | 3.0 | 12.0 | 0.01 | 0.63 | 0.17 | 86 | 1011.7 |
| 20260507160048 | 62 | 243 | 4.0 | 11.0 | 0.01 | 0.63 | 0.17 | 87 | 1011.8 |
| 20260507155535 | 62 | 261 | 3.0 | 10.0 | 0.02 | 0.70 | 0.17 | 88 | 1011.7 |
| 20260507155034 | 62 | 257 | 4.0 | 10.0 | 0.02 | 0.70 | 0.17 | 89 | 1011.8 |
| 20260507154546 | 62 | 265 | 3.0 | 10.0 | 0.02 | 0.70 | 0.17 | 89 | 1011.7 |
| 20260507154036 | 62 | 254 | 4.0 | 10.0 | 0.02 | 0.70 | 0.17 | 91 | 1011.8 |
| 20260507153534 | 61 | 243 | 3.0 | 9.0 | 0.01 | 0.69 | 0.16 | 93 | 1012.0 |
| 20260507153043 | 61 | 251 | 2.0 | 9.0 | 0.01 | 0.69 | 0.16 | 94 | 1012.0 |
| 20260507152536 | 61 | 257 | 3.0 | 9.0 | 0.01 | 0.69 | 0.16 | 94 | 1012.0 |
| 20260507152035 | 61 | 245 | 2.0 | 9.0 | 0.01 | 0.69 | 0.16 | 95 | 1011.9 |
| 20260507151553 | 61 | 258 | 3.0 | 9.0 | 0.01 | 0.69 | 0.16 | 95 | 1011.9 |
| 20260507151034 | 61 | 253 | 3.0 | 9.0 | 0.01 | 0.69 | 0.16 | 96 | 1012.0 |
| 20260507150534 | 61 | 268 | 3.0 | 9.0 | 0.02 | 0.69 | 0.16 | 96 | 1012.1 |
| 20260507150051 | 61 | 257 | 3.0 | 9.0 | 0.02 | 0.69 | 0.16 | 97 | 1012.0 |
| 20260507145533 | 60 | 252 | 2.0 | 10.0 | 0.01 | 0.75 | 0.15 | 97 | 1012.1 |
| 20260507145032 | 60 | 241 | 2.0 | 10.0 | 0.01 | 0.75 | 0.15 | 97 | 1012.1 |
| 20260507144543 | 60 | 261 | 3.0 | 11.0 | 0.01 | 0.75 | 0.15 | 97 | 1012.2 |
| 20260507144034 | 60 | 262 | 3.0 | 11.0 | 0.01 | 0.75 | 0.15 | 97 | 1012.4 |
| 20260507143539 | 60 | 243 | 2.0 | 10.0 | 0.01 | 0.75 | 0.15 | 97 | 1012.4 |
| 20260507143050 | 60 | 265 | 3.0 | 10.0 | 0.01 | 0.75 | 0.15 | 97 | 1012.3 |
| 20260507142535 | 60 | 258 | 2.0 | 10.0 | 0.01 | 0.75 | 0.15 | 97 | 1012.0 |
| 20260507142034 | 60 | 266 | 3.0 | 10.0 | 0.01 | 0.75 | 0.15 | 97 | 1012.2 |
| 20260507141542 | 60 | 274 | 1.0 | 8.0 | 0.01 | 0.75 | 0.15 | 97 | 1012.1 |
| 20260507141033 | 60 | 257 | 1.0 | 4.0 | 0.00 | 0.74 | 0.14 | 97 | 1012.0 |
| 20260507140535 | 60 | 267 | 1.0 | 4.0 | 0.01 | 0.74 | 0.14 | 97 | 1011.8 |
| 20260507140049 | 60 | 257 | 0.0 | 4.0 | 0.01 | 0.74 | 0.14 | 97 | 1011.7 |
| 20260507135534 | 60 | 258 | 0.0 | 4.0 | 0.01 | 0.74 | 0.14 | 97 | 1011.7 |
| 20260507135036 | 60 | 259 | 0.0 | 2.0 | 0.01 | 0.74 | 0.14 | 97 | 1011.7 |
| 20260507134547 | 60 | 0 | 0.0 | 2.0 | 0.01 | 0.74 | 0.14 | 97 | 1011.5 |
| 20260507134032 | 60 | 0 | 1.0 | 2.0 | 0.01 | 0.74 | 0.14 | 97 | 1011.5 |
| 20260507133532 | 60 | 259 | 0.0 | 3.0 | 0.01 | 0.74 | 0.14 | 97 | 1011.5 |
| 20260507133045 | 60 | 0 | 0.0 | 3.0 | 0.01 | 0.74 | 0.14 | 97 | 1011.3 |
| 20260507132532 | 60 | 0 | 0.0 | 2.0 | 0.01 | 0.74 | 0.14 | 97 | 1011.5 |
| 20260507132033 | 59 | 0 | 0.0 | 2.0 | 0.01 | 0.74 | 0.14 | 97 | 1011.3 |
| 20260507131543 | 59 | 0 | 0.0 | 0.0 | 0.01 | 0.74 | 0.14 | 97 | 1011.2 |
| 20260507131035 | 59 | 0 | 0.0 | 2.0 | 0.01 | 0.74 | 0.14 | 97 | 1011.2 |
| 20260507130535 | 59 | 0 | 0.0 | 3.0 | 0.00 | 0.73 | 0.13 | 97 | 1011.0 |
| 20260507130058 | 59 | 0 | 0.0 | 3.0 | 0.01 | 0.73 | 0.13 | 97 | 1011.8 |
| 20260507125535 | 59 | 0 | 0.0 | 3.0 | 0.01 | 0.77 | 0.13 | 97 | 1012.1 |
| 20260507125035 | 59 | 259 | 0.0 | 4.0 | 0.01 | 0.77 | 0.13 | 97 | 1012.1 |
| 20260507124607 | 59 | 0 | 1.0 | 4.0 | 0.01 | 0.77 | 0.13 | 97 | 1011.9 |
| 20260507124033 | 59 | 0 | 0.0 | 5.0 | 0.01 | 0.77 | 0.13 | 97 | 1011.9 |
| 20260507123533 | 59 | 0 | 0.0 | 5.0 | 0.01 | 0.77 | 0.13 | 97 | 1012.0 |
| 20260507123103 | 59 | 248 | 2.0 | 5.0 | 0.01 | 0.77 | 0.13 | 97 | 1012.6 |
| 20260507122532 | 59 | 248 | 1.0 | 4.0 | 0.01 | 0.77 | 0.13 | 97 | 1012.8 |
| 20260507122032 | 59 | 256 | 2.0 | 4.0 | 0.02 | 0.77 | 0.13 | 97 | 1012.8 |
| 20260507121558 | 59 | 229 | 0.0 | 2.0 | 0.02 | 0.77 | 0.13 | 97 | 1011.7 |
| 20260507121033 | 59 | 0 | 0.0 | 1.0 | 0.02 | 0.77 | 0.13 | 97 | 1011.4 |
| 20260507120540 | 59 | 0 | 0.0 | 1.0 | 0.02 | 0.77 | 0.13 | 97 | 1011.6 |
| 20260507120055 | 58 | 0 | 0.0 | 1.0 | 0.01 | 0.76 | 0.12 | 97 | 1011.4 |
| 20260507115536 | 58 | 0 | 0.0 | 1.0 | 0.01 | 0.76 | 0.12 | 97 | 1011.5 |
| 20260507115035 | 58 | 0 | 0.0 | 1.0 | 0.01 | 0.76 | 0.12 | 97 | 1011.6 |
| 20260507114552 | 58 | 0 | 0.0 | 1.0 | 0.01 | 0.76 | 0.12 | 97 | 1011.4 |
| 20260507114035 | 58 | 0 | 0.0 | 0.0 | 0.01 | 0.76 | 0.12 | 97 | 1011.1 |
| 20260507113537 | 59 | 0 | 0.0 | 0.0 | 0.01 | 0.76 | 0.12 | 97 | 1010.9 |
| 20260507113047 | 59 | 0 | 0.0 | 0.0 | 0.02 | 0.76 | 0.12 | 97 | 1011.1 |
| 20260507112535 | 58 | 0 | 0.0 | 0.0 | 0.01 | 0.75 | 0.11 | 97 | 1011.0 |
| 20260507112033 | 59 | 0 | 0.0 | 0.0 | 0.01 | 0.75 | 0.11 | 97 | 1011.3 |
| 20260507111551 | 59 | 0 | 0.0 | 1.0 | 0.01 | 0.75 | 0.11 | 97 | 1011.5 |
| 20260507111032 | 59 | 0 | 0.0 | 1.0 | 0.01 | 0.75 | 0.11 | 97 | 1011.8 |
| 20260507110532 | 59 | 0 | 0.0 | 1.0 | 0.01 | 0.75 | 0.11 | 96 | 1011.4 |
| 20260507110048 | 59 | 0 | 0.0 | 1.0 | 0.01 | 0.75 | 0.11 | 96 | 1011.5 |
| 20260507105533 | 59 | 0 | 0.0 | 1.0 | 0.01 | 0.75 | 0.11 | 96 | 1011.0 |
| 20260507105035 | 59 | 225 | 0.0 | 2.0 | 0.02 | 0.75 | 0.11 | 96 | 1011.1 |
| 20260507104553 | 59 | 0 | 0.0 | 2.0 | 0.02 | 0.75 | 0.11 | 96 | 1011.4 |
| 20260507104037 | 59 | 0 | 0.0 | 0.0 | 0.02 | 0.75 | 0.11 | 96 | 1012.0 |
| 20260507103536 | 59 | 0 | 0.0 | 0.0 | 0.02 | 0.75 | 0.11 | 96 | 1012.5 |
| 20260507103042 | 59 | 0 | 0.0 | 3.0 | 0.01 | 0.74 | 0.10 | 96 | 1012.9 |
| 20260507102535 | 59 | 0 | 0.0 | 3.0 | 0.01 | 0.74 | 0.10 | 96 | 1012.7 |
| 20260507102036 | 59 | 237 | 1.0 | 3.0 | 0.01 | 0.74 | 0.10 | 96 | 1012.6 |
| 20260507101557 | 59 | 0 | 0.0 | 1.0 | 0.01 | 0.74 | 0.10 | 96 | 1012.3 |
| 20260507101034 | 59 | 0 | 0.0 | 1.0 | 0.01 | 0.74 | 0.10 | 96 | 1011.7 |
| 20260507100532 | 59 | 0 | 0.0 | 1.0 | 0.01 | 0.74 | 0.10 | 96 | 1011.4 |
| 20260507100056 | 59 | 0 | 0.0 | 1.0 | 0.01 | 0.74 | 0.10 | 97 | 1011.5 |
| 20260507095533 | 59 | 0 | 0.0 | 3.0 | 0.02 | 0.74 | 0.10 | 96 | 1011.9 |
| 20260507095034 | 59 | 0 | 0.0 | 4.0 | 0.01 | 0.73 | 0.09 | 96 | 1012.2 |
| 20260507094544 | 59 | 269 | 0.0 | 4.0 | 0.01 | 0.73 | 0.09 | 96 | 1012.5 |
| 20260507094032 | 59 | 257 | 1.0 | 4.0 | 0.01 | 0.73 | 0.09 | 96 | 1012.5 |
| 20260507093532 | 59 | 267 | 0.0 | 0.0 | 0.01 | 0.73 | 0.09 | 97 | 1011.5 |
| 20260507093043 | 59 | 0 | 0.0 | 0.0 | 0.01 | 0.73 | 0.09 | 97 | 1011.0 |
| 20260507092538 | 59 | 0 | 0.0 | 0.0 | 0.01 | 0.73 | 0.09 | 96 | 1011.0 |
| 20260507092039 | 59 | 0 | 0.0 | 0.0 | 0.01 | 0.73 | 0.09 | 97 | 1011.3 |
| 20260507091547 | 59 | 0 | 0.0 | 1.0 | 0.02 | 0.73 | 0.09 | 97 | 1011.4 |
| 20260507091035 | 59 | 0 | 0.0 | 1.0 | 0.02 | 0.73 | 0.09 | 97 | 1011.6 |
| 20260507090535 | 59 | 0 | 0.0 | 2.0 | 0.02 | 0.73 | 0.09 | 97 | 1011.4 |
| 20260507090049 | 59 | 0 | 0.0 | 2.0 | 0.02 | 0.73 | 0.09 | 97 | 1011.8 |
| 20260507085535 | 59 | 267 | 1.0 | 2.0 | 0.01 | 0.72 | 0.08 | 96 | 1012.0 |
| 20260507085036 | 59 | 273 | 0.0 | 0.0 | 0.01 | 0.72 | 0.08 | 96 | 1011.7 |
| 20260507084551 | 59 | 0 | 0.0 | 0.0 | 0.01 | 0.72 | 0.08 | 96 | 1011.5 |
| 20260507084032 | 59 | 0 | 0.0 | 0.0 | 0.01 | 0.72 | 0.08 | 96 | 1011.1 |
| 20260507083533 | 59 | 0 | 0.0 | 0.0 | 0.01 | 0.72 | 0.08 | 96 | 1011.3 |
| 20260507083105 | 59 | 0 | 0.0 | 0.0 | 0.02 | 0.72 | 0.08 | 96 | 1011.1 |
| 20260507082533 | 59 | 0 | 0.0 | 0.0 | 0.02 | 0.72 | 0.08 | 96 | 1011.3 |
| 20260507082032 | 59 | 0 | 0.0 | 0.0 | 0.02 | 0.72 | 0.08 | 96 | 1011.1 |
| 20260507081555 | 59 | 0 | 0.0 | 0.0 | 0.01 | 0.71 | 0.07 | 96 | 1011.1 |
| 20260507081033 | 59 | 0 | 0.0 | 0.0 | 0.01 | 0.71 | 0.07 | 96 | 1011.3 |
| 20260507080537 | 59 | 0 | 0.0 | 0.0 | 0.01 | 0.71 | 0.07 | 96 | 1011.1 |
| 20260507080052 | 59 | 0 | 0.0 | 0.0 | 0.01 | 0.71 | 0.07 | 96 | 1011.5 |
| 20260507075537 | 59 | 0 | 0.0 | 0.0 | 0.01 | 0.71 | 0.07 | 96 | 1011.9 |
| 20260507075035 | 60 | 0 | 0.0 | 0.0 | 0.02 | 0.71 | 0.07 | 96 | 1012.0 |
| 20260507074548 | 60 | 0 | 0.0 | 0.0 | 0.02 | 0.71 | 0.07 | 96 | 1012.0 |
| 20260507074034 | 60 | 0 | 0.0 | 0.0 | 0.02 | 0.71 | 0.07 | 96 | 1012.1 |
| 20260507073535 | 60 | 0 | 0.0 | 0.0 | 0.02 | 0.71 | 0.07 | 96 | 1012.3 |
| 20260507073057 | 60 | 0 | 0.0 | 0.0 | 0.01 | 0.70 | 0.06 | 96 | 1012.2 |
| 20260507072536 | 60 | 0 | 0.0 | 0.0 | 0.01 | 0.70 | 0.06 | 96 | 1012.1 |
| 20260507072036 | 60 | 0 | 0.0 | 0.0 | 0.01 | 0.70 | 0.06 | 96 | 1012.1 |
| 20260507071546 | 60 | 0 | 0.0 | 3.0 | 0.01 | 0.70 | 0.06 | 96 | 1012.3 |
| 20260507071032 | 60 | 0 | 0.0 | 3.0 | 0.02 | 0.70 | 0.06 | 96 | 1012.2 |
| 20260507070532 | 60 | 280 | 0.0 | 2.0 | 0.02 | 0.70 | 0.06 | 96 | 1012.7 |
| 20260507070046 | 60 | 0 | 0.0 | 2.0 | 0.02 | 0.70 | 0.06 | 96 | 1012.5 |
| 20260507065541 | 60 | 0 | 0.0 | 6.0 | 0.02 | 0.70 | 0.06 | 96 | 1012.6 |
| 20260507065033 | 60 | 290 | 1.0 | 6.0 | 0.01 | 0.69 | 0.05 | 96 | 1012.6 |
| 20260507064548 | 60 | 257 | 3.0 | 6.0 | 0.02 | 0.69 | 0.05 | 96 | 1013.7 |
| 20260507064038 | 60 | 0 | 0.0 | 0.0 | 0.02 | 0.69 | 0.05 | 96 | 1011.9 |
| 20260507063535 | 60 | 0 | 0.0 | 0.0 | 0.02 | 0.69 | 0.05 | 96 | 1011.6 |
| 20260507063052 | 60 | 0 | 0.0 | 1.0 | 0.02 | 0.69 | 0.05 | 96 | 1011.9 |
| 20260507062533 | 60 | 0 | 0.0 | 1.0 | 0.02 | 0.69 | 0.05 | 96 | 1012.2 |
| 20260507062035 | 60 | 0 | 0.0 | 6.0 | 0.02 | 0.69 | 0.05 | 96 | 1012.5 |
| 20260507061606 | 60 | 328 | 0.0 | 6.0 | 0.02 | 0.69 | 0.05 | 96 | 1012.8 |
| 20260507061033 | 60 | 261 | 1.0 | 6.0 | 0.02 | 0.68 | 0.04 | 96 | 1013.2 |
| 20260507060534 | 60 | 0 | 0.0 | 0.0 | 0.02 | 0.68 | 0.04 | 96 | 1012.7 |
| 20260507060046 | 60 | 0 | 0.0 | 0.0 | 0.02 | 0.68 | 0.04 | 96 | 1012.3 |
| 20260507055537 | 60 | 0 | 0.0 | 0.0 | 0.02 | 0.68 | 0.04 | 96 | 1012.4 |
| 20260507055033 | 60 | 0 | 0.0 | 0.0 | 0.02 | 0.68 | 0.04 | 96 | 1012.7 |
| 20260507054545 | 60 | 0 | 0.0 | 1.0 | 0.02 | 0.67 | 0.03 | 96 | 1013.0 |
| 20260507054036 | 60 | 0 | 0.0 | 1.0 | 0.02 | 0.67 | 0.03 | 96 | 1013.5 |
| 20260507053534 | 60 | 0 | 0.0 | 1.0 | 0.02 | 0.67 | 0.03 | 96 | 1013.3 |
| 20260507053045 | 60 | 270 | 0.0 | 2.0 | 0.02 | 0.67 | 0.03 | 96 | 1013.7 |
| 20260507052533 | 60 | 0 | 1.0 | 2.0 | 0.02 | 0.67 | 0.03 | 96 | 1013.5 |
| 20260507052033 | 60 | 0 | 0.0 | 0.0 | 0.02 | 0.67 | 0.03 | 96 | 1012.9 |
| 20260507051544 | 60 | 0 | 0.0 | 0.0 | 0.03 | 0.67 | 0.03 | 96 | 1014.0 |
| 20260507051033 | 60 | 0 | 0.0 | 0.0 | 0.02 | 0.66 | 0.02 | 96 | 1014.2 |
| 20260507050535 | 60 | 0 | 0.0 | 0.0 | 0.02 | 0.66 | 0.02 | 96 | 1014.1 |
| 20260507050055 | 60 | 0 | 0.0 | 0.0 | 0.02 | 0.66 | 0.02 | 96 | 1013.8 |
| 20260507045534 | 60 | 0 | 0.0 | 2.0 | 0.02 | 0.66 | 0.02 | 96 | 1013.6 |
| 20260507045034 | 60 | 0 | 0.0 | 2.0 | 0.02 | 0.65 | 0.01 | 96 | 1014.2 |
| 20260507044547 | 60 | 267 | 0.0 | 2.0 | 0.02 | 0.65 | 0.01 | 96 | 1014.6 |
| 20260507044033 | 60 | 0 | 0.0 | 4.0 | 0.02 | 0.65 | 0.01 | 96 | 1014.0 |
| 20260507043533 | 60 | 0 | 0.0 | 4.0 | 0.02 | 0.65 | 0.01 | 96 | 1014.6 |
| 20260507043045 | 60 | 254 | 0.0 | 4.0 | 0.02 | 0.65 | 0.01 | 96 | 1015.1 |
| 20260507042534 | 60 | 0 | 0.0 | 1.0 | 0.02 | 0.65 | 0.01 | 96 | 1014.4 |
| 20260507042037 | 60 | 0 | 0.0 | 2.0 | 0.03 | 0.65 | 0.01 | 96 | 1014.4 |
| 20260507041547 | 60 | 0 | 0.0 | 4.0 | 0.02 | 0.64 | 0.00 | 96 | 1014.3 |
| 20260507041040 | 60 | 0 | 1.0 | 4.0 | 0.02 | 0.64 | 0.00 | 96 | 1014.6 |
| 20260507040535 | 60 | 246 | 0.0 | 2.0 | 0.02 | 0.64 | 0.00 | 96 | 1014.3 |
| 20260507040045 | 60 | 0 | 0.0 | 2.0 | 0.02 | 0.64 | 0.00 | 96 | 1014.0 |
| 20260507035533 | 60 | 229 | 0.0 | 1.0 | 0.03 | 0.64 | 0.64 | 96 | 1014.0 |
| 20260507035036 | 60 | 229 | 0.0 | 1.0 | 0.02 | 0.63 | 0.63 | 96 | 1013.4 |
| 20260507034549 | 60 | 0 | 0.0 | 0.0 | 0.02 | 0.63 | 0.63 | 96 | 1013.8 |
| 20260507034034 | 60 | 0 | 0.0 | 0.0 | 0.02 | 0.63 | 0.63 | 96 | 1013.7 |
| 20260507033536 | 61 | 0 | 0.0 | 0.0 | 0.02 | 0.63 | 0.63 | 96 | 1013.5 |
| 20260507033052 | 61 | 0 | 0.0 | 0.0 | 0.03 | 0.63 | 0.63 | 96 | 1013.8 |
| 20260507032536 | 60 | 0 | 0.0 | 2.0 | 0.03 | 0.63 | 0.63 | 96 | 1013.9 |
| 20260507032033 | 61 | 0 | 0.0 | 2.0 | 0.02 | 0.62 | 0.62 | 96 | 1014.2 |
| 20260507031550 | 61 | 230 | 0.0 | 2.0 | 0.02 | 0.62 | 0.62 | 96 | 1014.4 |
| 20260507031037 | 61 | 0 | 0.0 | 1.0 | 0.03 | 0.62 | 0.62 | 96 | 1013.8 |
| 20260507030533 | 61 | 0 | 0.0 | 1.0 | 0.03 | 0.62 | 0.62 | 96 | 1013.9 |
| 20260507030045 | 61 | 0 | 0.0 | 1.0 | 0.03 | 0.62 | 0.62 | 96 | 1013.8 |
| 20260507025533 | 61 | 0 | 0.0 | 0.0 | 0.02 | 0.61 | 0.61 | 96 | 1013.9 |
| 20260507025037 | 61 | 0 | 0.0 | 0.0 | 0.03 | 0.61 | 0.61 | 96 | 1013.9 |
| 20260507024559 | 61 | 0 | 0.0 | 0.0 | 0.03 | 0.61 | 0.61 | 96 | 1013.9 |
| 20260507024035 | 61 | 0 | 0.0 | 0.0 | 0.03 | 0.61 | 0.61 | 96 | 1013.9 |
| 20260507023541 | 61 | 0 | 0.0 | 0.0 | 0.03 | 0.61 | 0.61 | 96 | 1013.9 |
| 20260507023046 | 61 | 0 | 0.0 | 1.0 | 0.03 | 0.60 | 0.60 | 96 | 1013.9 |
| 20260507022535 | 61 | 0 | 0.0 | 2.0 | 0.03 | 0.60 | 0.60 | 96 | 1014.1 |
| 20260507022035 | 61 | 0 | 0.0 | 2.0 | 0.03 | 0.60 | 0.60 | 96 | 1014.3 |
| 20260507021545 | 61 | 0 | 0.0 | 0.0 | 0.03 | 0.60 | 0.60 | 96 | 1014.2 |
| 20260507021034 | 61 | 0 | 0.0 | 0.0 | 0.03 | 0.58 | 0.58 | 96 | 1014.1 |
| 20260507020535 | 61 | 0 | 0.0 | 0.0 | 0.03 | 0.58 | 0.58 | 96 | 1014.1 |
| 20260507020103 | 61 | 0 | 0.0 | 0.0 | 0.03 | 0.58 | 0.58 | 96 | 1013.9 |
| 20260507015534 | 61 | 0 | 0.0 | 0.0 | 0.04 | 0.58 | 0.58 | 96 | 1013.7 |
| 20260507015034 | 61 | 0 | 0.0 | 0.0 | 0.03 | 0.58 | 0.58 | 96 | 1013.9 |
| 20260507014554 | 61 | 0 | 0.0 | 0.0 | 0.03 | 0.58 | 0.58 | 96 | 1014.0 |
| 20260507014034 | 61 | 0 | 0.0 | 0.0 | 0.03 | 0.58 | 0.58 | 96 | 1014.3 |
| 20260507013536 | 61 | 0 | 0.0 | 0.0 | 0.04 | 0.58 | 0.58 | 96 | 1014.2 |
| 20260507013049 | 61 | 0 | 0.0 | 0.0 | 0.03 | 0.57 | 0.57 | 96 | 1014.4 |
| 20260507012537 | 61 | 0 | 0.0 | 0.0 | 0.03 | 0.57 | 0.57 | 96 | 1014.4 |
| 20260507012037 | 61 | 0 | 0.0 | 0.0 | 0.04 | 0.57 | 0.57 | 96 | 1014.2 |
| 20260507011546 | 61 | 0 | 0.0 | 0.0 | 0.04 | 0.57 | 0.57 | 96 | 1013.9 |
| 20260507011033 | 61 | 0 | 0.0 | 3.0 | 0.03 | 0.56 | 0.56 | 96 | 1014.0 |
| 20260507010534 | 61 | 0 | 0.0 | 3.0 | 0.04 | 0.56 | 0.56 | 96 | 1015.0 |
| 20260507010047 | 61 | 262 | 1.0 | 3.0 | 0.04 | 0.56 | 0.56 | 96 | 1016.1 |
| 20260507005534 | 61 | 254 | 0.0 | 3.0 | 0.03 | 0.55 | 0.55 | 96 | 1014.9 |
| 20260507005035 | 61 | 0 | 0.0 | 3.0 | 0.04 | 0.55 | 0.55 | 96 | 1014.9 |
| 20260507004553 | 61 | 263 | 0.0 | 4.0 | 0.04 | 0.55 | 0.55 | 96 | 1015.0 |
| 20260507004035 | 61 | 0 | 0.0 | 4.0 | 0.04 | 0.55 | 0.55 | 96 | 1014.5 |
| 20260507003534 | 61 | 257 | 1.0 | 4.0 | 0.04 | 0.54 | 0.54 | 96 | 1015.0 |
| 20260507003046 | 61 | 256 | 0.0 | 2.0 | 0.04 | 0.54 | 0.54 | 95 | 1014.8 |
| 20260507002534 | 61 | 0 | 0.0 | 2.0 | 0.04 | 0.54 | 0.54 | 95 | 1014.8 |
| 20260507002034 | 61 | 0 | 0.0 | 3.0 | 0.04 | 0.52 | 0.52 | 95 | 1014.6 |
| 20260507001553 | 61 | 256 | 1.0 | 3.0 | 0.04 | 0.52 | 0.52 | 96 | 1015.0 |
| 20260507001033 | 61 | 0 | 0.0 | 3.0 | 0.04 | 0.52 | 0.52 | 95 | 1014.7 |
| 20260507000534 | 61 | 265 | 1.0 | 3.0 | 0.04 | 0.52 | 0.52 | 96 | 1014.6 |
| 20260507000049 | 61 | 0 | 0.0 | 0.0 | 0.04 | 0.52 | 0.52 | 96 | 1014.3 |
| 20260506235535 | 61 | 0 | 0.0 | 0.0 | 0.04 | 0.52 | 0.52 | 96 | 1014.1 |
| 20260506235037 | 62 | 0 | 0.0 | 0.0 | 0.04 | 0.51 | 0.51 | 96 | 1014.2 |
| 20260506234552 | 61 | 0 | 0.0 | 2.0 | 0.04 | 0.51 | 0.51 | 96 | 1013.7 |
| 20260506234033 | 62 | 0 | 0.0 | 2.0 | 0.05 | 0.51 | 0.51 | 95 | 1014.1 |
| 20260506233534 | 62 | 59 | 0.0 | 3.0 | 0.04 | 0.50 | 0.50 | 95 | 1013.8 |
| 20260506233045 | 62 | 0 | 0.0 | 4.0 | 0.04 | 0.50 | 0.50 | 95 | 1013.5 |
| 20260506232534 | 62 | 59 | 2.0 | 4.0 | 0.05 | 0.50 | 0.50 | 95 | 1012.8 |
| 20260506232034 | 62 | 263 | 1.0 | 4.0 | 0.04 | 0.49 | 0.49 | 95 | 1014.2 |
| 20260506231550 | 62 | 298 | 1.0 | 4.0 | 0.04 | 0.49 | 0.49 | 95 | 1013.6 |
| 20260506231034 | 62 | 263 | 0.0 | 4.0 | 0.05 | 0.49 | 0.49 | 96 | 1014.6 |
| 20260506230533 | 62 | 0 | 2.0 | 4.0 | 0.04 | 0.48 | 0.48 | 96 | 1014.6 |
| 20260506230058 | 62 | 0 | 0.0 | 1.0 | 0.05 | 0.48 | 0.48 | 96 | 1013.9 |
| 20260506225535 | 62 | 0 | 0.0 | 2.0 | 0.05 | 0.48 | 0.48 | 96 | 1013.8 |
| 20260506225034 | 62 | 0 | 0.0 | 2.0 | 0.04 | 0.47 | 0.47 | 96 | 1013.8 |
| 20260506224545 | 62 | 0 | 0.0 | 2.0 | 0.05 | 0.47 | 0.47 | 96 | 1014.2 |
| 20260506224037 | 62 | 0 | 0.0 | 1.0 | 0.04 | 0.46 | 0.46 | 95 | 1014.4 |
| 20260506223536 | 62 | 0 | 0.0 | 1.0 | 0.04 | 0.46 | 0.46 | 95 | 1014.5 |
| 20260506223053 | 62 | 0 | 0.0 | 1.0 | 0.05 | 0.46 | 0.46 | 95 | 1014.4 |
| 20260506222533 | 62 | 0 | 0.0 | 2.0 | 0.04 | 0.45 | 0.45 | 95 | 1014.5 |
| 20260506222033 | 62 | 0 | 0.0 | 2.0 | 0.04 | 0.45 | 0.45 | 95 | 1014.6 |
| 20260506221544 | 62 | 0 | 1.0 | 2.0 | 0.05 | 0.45 | 0.45 | 95 | 1014.6 |
| 20260506221036 | 62 | 0 | 0.0 | 0.0 | 0.04 | 0.44 | 0.44 | 95 | 1014.5 |
| 20260506220537 | 62 | 0 | 0.0 | 0.0 | 0.04 | 0.44 | 0.44 | 95 | 1014.1 |
| 20260506220047 | 62 | 0 | 0.0 | 0.0 | 0.04 | 0.43 | 0.43 | 95 | 1014.0 |
| 20260506215539 | 62 | 0 | 0.0 | 0.0 | 0.04 | 0.43 | 0.43 | 95 | 1014.2 |
| 20260506215034 | 63 | 0 | 0.0 | 0.0 | 0.04 | 0.43 | 0.43 | 95 | 1014.1 |
| 20260506214547 | 63 | 0 | 0.0 | 0.0 | 0.04 | 0.42 | 0.42 | 95 | 1014.1 |
| 20260506214035 | 63 | 0 | 0.0 | 0.0 | 0.04 | 0.42 | 0.42 | 95 | 1013.8 |
| 20260506213534 | 62 | 0 | 0.0 | 0.0 | 0.04 | 0.42 | 0.42 | 95 | 1013.6 |
| 20260506213102 | 62 | 0 | 0.0 | 0.0 | 0.04 | 0.41 | 0.41 | 95 | 1013.8 |
| 20260506212534 | 62 | 0 | 0.0 | 0.0 | 0.04 | 0.41 | 0.41 | 95 | 1014.1 |
| 20260506212038 | 62 | 0 | 0.0 | 0.0 | 0.04 | 0.41 | 0.41 | 95 | 1014.1 |
| 20260506211602 | 62 | 0 | 0.0 | 0.0 | 0.04 | 0.40 | 0.40 | 95 | 1014.0 |
| 20260506211034 | 62 | 0 | 0.0 | 2.0 | 0.04 | 0.40 | 0.40 | 95 | 1013.7 |
| 20260506210534 | 62 | 0 | 0.0 | 2.0 | 0.05 | 0.40 | 0.40 | 95 | 1014.0 |
| 20260506210047 | 62 | 0 | 0.0 | 0.0 | 0.04 | 0.39 | 0.39 | 95 | 1013.9 |
| 20260506205533 | 63 | 0 | 0.0 | 0.0 | 0.04 | 0.39 | 0.39 | 95 | 1014.2 |
| 20260506205033 | 62 | 0 | 0.0 | 0.0 | 0.05 | 0.39 | 0.39 | 95 | 1014.9 |
| 20260506204554 | 63 | 0 | 0.0 | 0.0 | 0.04 | 0.38 | 0.38 | 95 | 1014.7 |
| 20260506204032 | 63 | 0 | 0.0 | 0.0 | 0.04 | 0.38 | 0.38 | 95 | 1014.2 |
| 20260506203532 | 63 | 0 | 0.0 | 1.0 | 0.05 | 0.38 | 0.38 | 94 | 1014.7 |
| 20260506203048 | 63 | 0 | 0.0 | 1.0 | 0.04 | 0.37 | 0.37 | 94 | 1014.1 |
| 20260506202536 | 63 | 0 | 0.0 | 2.0 | 0.04 | 0.37 | 0.37 | 94 | 1014.5 |
| 20260506202037 | 63 | 0 | 0.0 | 2.0 | 0.04 | 0.37 | 0.37 | 94 | 1014.6 |
| 20260506201557 | 63 | 0 | 0.0 | 2.0 | 0.04 | 0.36 | 0.36 | 94 | 1014.6 |
| 20260506201034 | 63 | 0 | 0.0 | 2.0 | 0.04 | 0.36 | 0.36 | 94 | 1015.0 |
| 20260506200533 | 63 | 0 | 0.0 | 2.0 | 0.03 | 0.35 | 0.35 | 94 | 1014.7 |
| 20260506200044 | 63 | 347 | 1.0 | 2.0 | 0.04 | 0.35 | 0.35 | 94 | 1014.3 |
| 20260506195533 | 63 | 0 | 0.0 | 2.0 | 0.04 | 0.35 | 0.35 | 94 | 1015.1 |
| 20260506195033 | 63 | 0 | 0.0 | 0.0 | 0.03 | 0.34 | 0.34 | 94 | 1015.0 |
| 20260506194603 | 64 | 0 | 0.0 | 0.0 | 0.03 | 0.34 | 0.34 | 94 | 1014.8 |
| 20260506194033 | 64 | 0 | 0.0 | 0.0 | 0.04 | 0.34 | 0.34 | 94 | 1015.1 |
| 20260506193533 | 64 | 0 | 0.0 | 0.0 | 0.03 | 0.33 | 0.33 | 94 | 1015.1 |
| 20260506193041 | 64 | 0 | 0.0 | 0.0 | 0.03 | 0.33 | 0.33 | 94 | 1015.3 |
| 20260506192533 | 64 | 0 | 0.0 | 0.0 | 0.04 | 0.33 | 0.33 | 93 | 1015.4 |
| 20260506192034 | 64 | 0 | 0.0 | 0.0 | 0.03 | 0.32 | 0.32 | 94 | 1015.2 |
| 20260506191549 | 64 | 0 | 0.0 | 0.0 | 0.03 | 0.32 | 0.32 | 94 | 1015.3 |
| 20260506191034 | 64 | 0 | 0.0 | 0.0 | 0.03 | 0.32 | 0.32 | 93 | 1015.3 |
| 20260506190533 | 64 | 0 | 0.0 | 0.0 | 0.04 | 0.32 | 0.32 | 94 | 1015.3 |
| 20260506190046 | 64 | 0 | 0.0 | 0.0 | 0.03 | 0.31 | 0.31 | 93 | 1015.6 |
| 20260506185533 | 64 | 0 | 0.0 | 0.0 | 0.03 | 0.31 | 0.31 | 93 | 1015.7 |
| 20260506185036 | 64 | 0 | 0.0 | 0.0 | 0.04 | 0.31 | 0.31 | 93 | 1015.7 |
| 20260506184605 | 64 | 0 | 0.0 | 0.0 | 0.04 | 0.31 | 0.31 | 93 | 1015.8 |